Time;durP1;ratioP1;P1;durP2;ratioP2;P2;SDS_P1;SDS_P2;PMS_P1;PMS_P2;Temp;Humidity;BMP_temperature;BMP_pressure;BME280_temperature;BME280_humidity;BME280_pressure;Samples;Min_cycle;Max_cycle;Signal;HPM_P1;HPM_P2
2023/12/12 00:02:09;;;;;;;1.13;1.13;;;;;;;5.98;85.76;96680.47;4998622;28;20038;-70
2023/12/12 00:04:38;;;;;;;0.98;0.98;;;;;;;6.00;85.26;96676.66;5008153;28;20121;-71
2023/12/12 00:07:07;;;;;;;1.00;1.00;;;;;;;6.03;84.94;96678.06;5007089;28;20084;-70
2023/12/12 00:09:34;;;;;;;0.85;0.85;;;;;;;6.05;84.53;96673.41;5009169;28;20095;-70
2023/12/12 00:12:02;;;;;;;0.32;0.32;;;;;;;6.08;84.37;96676.50;5002436;28;20410;-70
2023/12/12 00:14:30;;;;;;;0.88;0.88;;;;;;;6.12;83.70;96682.25;5004796;28;20046;-70
2023/12/12 00:16:58;;;;;;;0.55;0.55;;;;;;;6.04;83.94;96677.88;5007153;28;20050;-70
2023/12/12 00:19:25;;;;;;;0.75;0.75;;;;;;;6.08;83.71;96686.28;5001872;28;20042;-70
2023/12/12 00:21:53;;;;;;;1.35;1.35;;;;;;;6.03;83.79;96686.03;5001553;28;20058;-70
2023/12/12 00:24:22;;;;;;;0.77;0.77;;;;;;;5.97;84.10;96679.66;5011048;28;20371;-70
2023/12/12 00:26:49;;;;;;;0.55;0.55;;;;;;;6.02;83.74;96687.06;5003805;28;20056;-70
2023/12/12 00:29:17;;;;;;;0.82;0.82;;;;;;;5.99;83.94;96684.78;5001051;28;20043;-70
2023/12/12 00:31:44;;;;;;;0.85;0.85;;;;;;;5.98;83.61;96685.78;5003498;28;20113;-70
2023/12/12 00:34:12;;;;;;;0.88;0.88;;;;;;;5.94;83.84;96679.22;5006154;28;20137;-71
2023/12/12 00:36:40;;;;;;;0.88;0.88;;;;;;;5.92;83.78;96687.34;5008064;28;20078;-72
2023/12/12 00:39:07;;;;;;;1.10;1.10;;;;;;;5.95;83.94;96686.97;4996371;28;20124;-70
2023/12/12 00:41:36;;;;;;;0.65;0.65;;;;;;;5.96;83.82;96683.31;5004058;28;20053;-70
2023/12/12 00:44:04;;;;;;;0.68;0.68;;;;;;;5.93;84.00;96693.44;5008892;28;20045;-70
2023/12/12 00:46:32;;;;;;;0.80;0.80;;;;;;;5.91;84.03;96698.97;5002675;28;20042;-71
2023/12/12 00:49:00;;;;;;;0.55;0.55;;;;;;;5.90;84.00;96705.25;4994243;28;20050;-71
2023/12/12 00:51:27;;;;;;;0.70;0.70;;;;;;;5.89;83.92;96693.03;4995426;28;20042;-71
2023/12/12 00:53:55;;;;;;;0.82;0.82;;;;;;;5.84;84.10;96696.19;5008286;28;20053;-72
2023/12/12 00:56:22;;;;;;;1.05;1.05;;;;;;;5.85;84.04;96694.38;5004968;28;20125;-72
2023/12/12 00:58:51;;;;;;;0.85;0.85;;;;;;;5.80;84.43;96700.25;5001149;28;20089;-71
2023/12/12 01:01:19;;;;;;;1.25;1.25;;;;;;;5.78;84.72;96701.44;4996890;28;20070;-71
2023/12/12 01:03:47;;;;;;;0.88;0.88;;;;;;;5.72;85.01;96705.63;5013566;28;20077;-71
2023/12/12 01:06:22;;;;;;;0.75;0.75;;;;;;;5.75;84.80;96713.19;4982871;28;20061;-71
2023/12/12 01:08:54;;;;;;;0.30;0.30;;;;;;;5.72;84.98;96710.91;4994366;28;20431;-71
2023/12/12 01:11:22;;;;;;;0.82;0.82;;;;;;;5.74;85.11;96716.03;5001999;28;20085;-70
2023/12/12 01:13:49;;;;;;;0.85;0.85;;;;;;;5.69;85.12;96719.25;4995782;28;20044;-71
2023/12/12 01:16:18;;;;;;;1.08;1.08;;;;;;;5.67;85.41;96718.63;5004676;28;20125;-72
2023/12/12 01:18:46;;;;;;;0.80;0.80;;;;;;;5.67;85.53;96723.09;4993244;28;20046;-72
2023/12/12 01:21:13;;;;;;;0.98;0.98;;;;;;;5.64;85.71;96711.03;5001531;28;20117;-72
2023/12/12 01:23:49;;;;;;;0.20;0.20;;;;;;;5.63;85.69;96717.31;5004404;28;20439;-72
2023/12/12 01:26:17;;;;;;;0.30;0.30;;;;;;;5.64;85.88;96729.56;4999375;28;20478;-72
2023/12/12 01:28:44;;;;;;;0.77;0.77;;;;;;;5.68;85.70;96730.03;4993655;28;20431;-72
2023/12/12 01:31:12;;;;;;;0.75;0.75;;;;;;;5.70;85.98;96726.19;4996590;28;20046;-72
2023/12/12 01:33:41;;;;;;;0.80;0.80;;;;;;;5.71;85.89;96727.00;4993310;28;20547;-72
2023/12/12 01:36:09;;;;;;;0.68;0.68;;;;;;;5.75;86.05;96729.09;4999176;28;20129;-72
2023/12/12 01:38:37;;;;;;;0.93;0.93;;;;;;;5.75;85.53;96728.25;4993393;28;20073;-72
2023/12/12 01:41:04;;;;;;;0.63;0.63;;;;;;;5.76;85.76;96729.91;5000322;28;20042;-72
2023/12/12 01:43:32;;;;;;;0.73;0.73;;;;;;;5.74;85.71;96731.91;4995995;28;20046;-73
2023/12/12 01:46:02;;;;;;;0.68;0.68;;;;;;;5.75;85.86;96726.44;5001012;28;20050;-72
2023/12/12 01:48:31;;;;;;;0.30;0.30;;;;;;;5.81;86.07;96743.44;4996271;28;20399;-72
2023/12/12 01:51:00;;;;;;;0.65;0.65;;;;;;;5.86;86.17;96743.66;5004985;28;20045;-71
2023/12/12 01:53:31;;;;;;;1.00;1.00;;;;;;;5.82;85.32;96745.03;4995505;28;20068;-71
2023/12/12 01:56:01;;;;;;;0.70;0.70;;;;;;;5.77;86.24;96748.25;5008734;28;20037;-72
2023/12/12 01:58:29;;;;;;;0.75;0.75;;;;;;;5.79;85.96;96743.59;5005122;28;20049;-72
2023/12/12 02:00:57;;;;;;;0.60;0.60;;;;;;;5.79;86.01;96751.53;5010770;28;20054;-71
2023/12/12 02:03:25;;;;;;;0.80;0.80;;;;;;;5.78;86.48;96741.97;4994352;28;20042;-71
2023/12/12 02:05:54;;;;;;;0.70;0.70;;;;;;;5.79;86.38;96740.13;5000913;28;20070;-71
2023/12/12 02:08:24;;;;;;;0.68;0.68;;;;;;;5.80;86.66;96739.94;4997055;28;20042;-71
2023/12/12 02:10:52;;;;;;;0.80;0.80;;;;;;;5.81;86.23;96738.91;4998671;28;20049;-71
2023/12/12 02:13:19;;;;;;;0.82;0.82;;;;;;;5.79;85.95;96740.97;4998725;28;20046;-72
2023/12/12 02:15:47;;;;;;;0.77;0.77;;;;;;;5.73;86.05;96749.63;5001501;28;20117;-71
2023/12/12 02:18:15;;;;;;;0.60;0.60;;;;;;;5.64;86.37;96740.16;5005716;28;20574;-72
2023/12/12 02:20:43;;;;;;;0.30;0.30;;;;;;;5.62;86.54;96747.44;5008280;28;20419;-72
2023/12/12 02:23:12;;;;;;;1.02;1.02;;;;;;;5.70;86.22;96746.53;4998299;28;20514;-72
2023/12/12 02:25:40;;;;;;;1.00;1.00;;;;;;;5.52;86.92;96741.63;5001672;28;20049;-71
2023/12/12 02:28:08;;;;;;;1.13;1.13;;;;;;;5.48;87.08;96741.19;5003096;28;20049;-71
2023/12/12 02:30:36;;;;;;;0.90;0.90;;;;;;;5.46;87.46;96742.38;4999254;28;20045;-72
2023/12/12 02:33:04;;;;;;;0.75;0.75;;;;;;;5.48;87.34;96749.13;5005626;28;20048;-71
2023/12/12 02:35:32;;;;;;;1.05;1.05;;;;;;;5.48;87.06;96743.00;4996943;28;20049;-71
2023/12/12 02:38:00;;;;;;;1.00;1.00;;;;;;;5.57;86.88;96743.72;4998618;28;20578;-71
2023/12/12 02:40:29;;;;;;;0.20;0.20;;;;;;;5.54;86.70;96742.25;4995054;28;20403;-71
2023/12/12 02:42:57;;;;;;;0.28;0.28;;;;;;;5.55;87.00;96749.19;4998583;28;20450;-72
2023/12/12 02:45:24;;;;;;;0.82;0.82;;;;;;;5.58;86.69;96740.91;4995952;28;20054;-71
2023/12/12 02:47:52;;;;;;;1.27;1.27;;;;;;;5.61;86.54;96747.63;5001120;28;20050;-70
2023/12/12 02:50:20;;;;;;;0.80;0.80;;;;;;;5.67;86.64;96744.25;5004606;28;20519;-71
2023/12/12 02:52:51;;;;;;;0.93;0.93;;;;;;;5.69;86.26;96743.06;4997087;28;20046;-71
2023/12/12 02:55:19;;;;;;;0.90;0.90;;;;;;;5.64;86.43;96737.50;4992887;28;20096;-72
2023/12/12 02:57:48;;;;;;;1.00;1.00;;;;;;;5.64;86.63;96737.50;5004744;28;20053;-71
2023/12/12 03:00:16;;;;;;;1.05;1.05;;;;;;;5.68;86.66;96748.56;5001727;28;20057;-71
2023/12/12 03:02:44;;;;;;;0.82;0.82;;;;;;;5.73;86.55;96746.97;5009815;28;20145;-72
2023/12/12 03:05:12;;;;;;;0.75;0.75;;;;;;;5.77;86.63;96742.13;4996082;28;20046;-72
2023/12/12 03:07:39;;;;;;;0.85;0.85;;;;;;;5.80;86.73;96733.84;4986600;28;20066;-72
2023/12/12 03:10:08;;;;;;;0.55;0.55;;;;;;;5.80;86.38;96731.19;4995856;28;20078;-71
2023/12/12 03:12:36;;;;;;;1.10;1.10;;;;;;;5.80;86.24;96733.84;5002953;28;20136;-72
2023/12/12 03:15:05;;;;;;;0.80;0.80;;;;;;;5.85;86.24;96723.50;5003717;28;20043;-71
2023/12/12 03:17:33;;;;;;;0.30;0.30;;;;;;;5.86;85.84;96722.50;4998787;28;20414;-71
2023/12/12 03:20:01;;;;;;;0.28;0.28;;;;;;;5.81;85.48;96730.19;4994229;28;20411;-73
2023/12/12 03:22:29;;;;;;;0.90;0.90;;;;;;;5.82;85.85;96731.81;4989394;28;20517;-71
2023/12/12 03:24:57;;;;;;;0.98;0.98;;;;;;;5.77;85.36;96724.44;5003464;28;20041;-71
2023/12/12 03:27:24;;;;;;;0.88;0.88;;;;;;;5.76;85.34;96729.91;4994076;28;20454;-71
2023/12/12 03:29:52;;;;;;;0.90;0.90;;;;;;;5.74;85.20;96721.31;4997198;28;20046;-72
2023/12/12 03:32:21;;;;;;;1.02;1.02;;;;;;;5.65;85.61;96720.63;5004122;28;20045;-71
2023/12/12 03:34:48;;;;;;;1.10;1.10;;;;;;;5.59;85.66;96723.19;5002038;28;20030;-71
2023/12/12 03:37:16;;;;;;;0.82;0.82;;;;;;;5.50;86.15;96723.28;4989568;28;20097;-72
2023/12/12 03:39:44;;;;;;;0.88;0.88;;;;;;;5.43;85.96;96719.72;4999364;28;20525;-72
2023/12/12 03:42:12;;;;;;;0.20;0.20;;;;;;;5.41;85.74;96715.63;5010155;28;20506;-71
2023/12/12 03:44:39;;;;;;;1.05;1.05;;;;;;;5.40;85.68;96724.56;4991751;28;20125;-71
2023/12/12 03:47:07;;;;;;;1.20;1.20;;;;;;;5.41;85.39;96720.91;4997637;28;20518;-72
2023/12/12 03:49:36;;;;;;;1.17;1.17;;;;;;;5.38;85.43;96721.31;4991588;28;20046;-72
2023/12/12 03:52:04;;;;;;;0.95;0.95;;;;;;;5.35;85.46;96730.41;5004819;28;20104;-72
2023/12/12 03:54:32;;;;;;;0.60;0.60;;;;;;;5.32;85.74;96729.94;4978165;28;20042;-71
2023/12/12 03:57:00;;;;;;;0.88;0.88;;;;;;;5.27;85.65;96730.53;4989949;28;20141;-72
2023/12/12 03:59:27;;;;;;;0.95;0.95;;;;;;;5.28;86.02;96726.06;5002802;28;20034;-71
2023/12/12 04:01:55;;;;;;;0.88;0.88;;;;;;;5.28;85.85;96731.34;5001351;28;20081;-73
2023/12/12 04:04:23;;;;;;;1.00;1.00;;;;;;;5.23;86.11;96737.16;5010987;28;20049;-72
2023/12/12 04:06:52;;;;;;;0.82;0.82;;;;;;;5.23;85.80;96725.75;4997076;28;20046;-72
2023/12/12 04:09:19;;;;;;;0.95;0.95;;;;;;;5.22;85.90;96727.59;4999191;28;20057;-72
2023/12/12 04:11:47;;;;;;;0.82;0.82;;;;;;;5.21;86.15;96715.38;4993569;28;20491;-72
2023/12/12 04:14:14;;;;;;;0.90;0.90;;;;;;;5.21;86.44;96727.75;4992828;28;20153;-73
2023/12/12 04:16:42;;;;;;;0.80;0.80;;;;;;;5.20;86.10;96721.66;4995454;28;20050;-72
2023/12/12 04:19:10;;;;;;;0.30;0.30;;;;;;;5.24;85.99;96724.75;4991041;28;20404;-72
2023/12/12 04:21:37;;;;;;;0.22;0.22;;;;;;;5.27;85.95;96732.34;4994948;28;20283;-73
2023/12/12 04:24:07;;;;;;;1.15;1.15;;;;;;;5.10;85.90;96726.38;5002035;28;20530;-72
2023/12/12 04:26:35;;;;;;;1.05;1.05;;;;;;;4.96;86.12;96727.22;4995276;28;20050;-72
2023/12/12 04:29:04;;;;;;;0.90;0.90;;;;;;;4.84;86.74;96726.03;4994165;28;20061;-72
2023/12/12 04:31:32;;;;;;;0.65;0.65;;;;;;;4.72;87.06;96729.09;5008663;28;20393;-73
2023/12/12 04:33:59;;;;;;;1.15;1.15;;;;;;;4.66;87.49;96724.53;5004661;28;20061;-72
2023/12/12 04:36:27;;;;;;;0.93;0.93;;;;;;;4.56;87.48;96721.34;5005274;28;20128;-72
2023/12/12 04:38:55;;;;;;;0.93;0.93;;;;;;;4.61;87.91;96716.31;4996169;28;20042;-72
2023/12/12 04:41:24;;;;;;;0.75;0.75;;;;;;;4.50;88.00;96729.94;4994400;28;20050;-72
2023/12/12 04:43:51;;;;;;;1.15;1.15;;;;;;;4.55;88.05;96730.25;4997537;28;20473;-72
2023/12/12 04:46:19;;;;;;;0.93;0.93;;;;;;;4.57;88.33;96722.94;4998432;28;20042;-72
2023/12/12 04:48:47;;;;;;;3.05;2.95;;;;;;;4.62;88.62;96731.19;5006064;28;20034;-72
2023/12/12 04:51:15;;;;;;;0.93;0.93;;;;;;;4.59;88.80;96742.09;5010367;28;20050;-72
2023/12/12 04:53:43;;;;;;;0.93;0.93;;;;;;;4.61;89.25;96744.56;5009135;28;20074;-72
2023/12/12 04:56:11;;;;;;;0.60;0.60;;;;;;;4.68;89.19;96741.00;5001949;28;20049;-72
2023/12/12 04:58:39;;;;;;;0.90;0.90;;;;;;;4.82;88.22;96741.22;4989602;28;20050;-72
2023/12/12 05:01:07;;;;;;;1.02;1.02;;;;;;;4.81;88.35;96743.06;5025384;23;20057;-71
2023/12/12 05:03:35;;;;;;;1.20;1.20;;;;;;;4.84;88.69;96729.47;4991621;28;20065;-72
2023/12/12 05:06:03;;;;;;;0.50;0.50;;;;;;;4.90;88.55;96730.56;4990482;28;20536;-71
2023/12/12 05:08:30;;;;;;;0.88;0.88;;;;;;;4.95;88.32;96741.44;4991446;28;20042;-72
2023/12/12 05:10:58;;;;;;;1.00;1.00;;;;;;;5.00;87.96;96736.41;4991332;28;20051;-72
2023/12/12 05:13:26;;;;;;;1.27;1.27;;;;;;;5.06;87.64;96736.53;4991305;28;20038;-72
2023/12/12 05:15:55;;;;;;;1.00;1.00;;;;;;;5.15;87.14;96735.44;4988711;28;20076;-71
2023/12/12 05:18:23;;;;;;;0.80;0.80;;;;;;;5.15;87.04;96746.03;4990780;28;20046;-73
2023/12/12 05:20:51;;;;;;;1.00;1.00;;;;;;;5.11;86.96;96747.38;4990905;28;20176;-71
2023/12/12 05:23:19;;;;;;;1.17;1.17;;;;;;;5.14;86.54;96747.03;4988496;28;20031;-74
2023/12/12 05:25:46;;;;;;;0.40;0.40;;;;;;;5.05;87.02;96752.56;4988087;28;20495;-71
2023/12/12 05:28:16;;;;;;;1.20;1.17;;;;;;;5.00;87.78;96760.22;4989783;28;20144;-71
2023/12/12 05:30:44;;;;;;;1.10;1.10;;;;;;;5.05;87.84;96757.88;4988869;28;20065;-72
2023/12/12 05:33:13;;;;;;;0.95;0.95;;;;;;;5.15;87.38;96759.25;4989835;28;20061;-71
2023/12/12 05:35:41;;;;;;;1.05;1.05;;;;;;;5.26;86.91;96751.84;4989085;28;20057;-71
2023/12/12 05:38:09;;;;;;;1.05;1.05;;;;;;;5.34;86.32;96759.69;4990670;28;20042;-70
2023/12/12 05:40:36;;;;;;;0.98;0.98;;;;;;;5.34;86.51;96762.34;4988738;28;20066;-71
2023/12/12 05:43:04;;;;;;;1.48;1.40;;;;;;;5.36;86.57;96765.63;4989784;28;20054;-70
2023/12/12 05:45:32;;;;;;;1.00;1.00;;;;;;;5.36;86.50;96771.75;4991446;28;20030;-71
2023/12/12 05:48:02;;;;;;;1.08;1.08;;;;;;;5.39;86.72;96771.41;4990366;28;20053;-71
2023/12/12 05:50:32;;;;;;;0.93;0.93;;;;;;;5.43;86.62;96777.13;4990786;28;20054;-73
2023/12/12 05:53:00;;;;;;;1.35;1.35;;;;;;;5.46;86.75;96774.13;4991009;28;20054;-69
2023/12/12 05:55:28;;;;;;;1.00;1.00;;;;;;;5.51;86.61;96775.19;4989682;28;20511;-73
2023/12/12 05:57:56;;;;;;;0.93;0.93;;;;;;;5.58;86.46;96775.31;4988940;28;20112;-70
2023/12/12 06:00:27;;;;;;;0.40;0.40;;;;;;;5.59;85.70;96770.84;4987142;28;20443;-70
2023/12/12 06:02:55;;;;;;;1.75;1.75;;;;;;;5.61;85.75;96772.28;4977124;28;20597;-70
2023/12/12 06:05:22;;;;;;;1.15;1.15;;;;;;;5.62;85.45;96776.56;4993030;28;20101;-69
2023/12/12 06:07:51;;;;;;;0.85;0.85;;;;;;;5.66;85.08;96775.19;4997246;28;20078;-70
2023/12/12 06:10:19;;;;;;;0.98;0.98;;;;;;;5.63;85.55;96772.09;4995075;28;20453;-71
2023/12/12 06:12:49;;;;;;;0.80;0.80;;;;;;;5.63;85.34;96775.56;4976243;28;20072;-70
2023/12/12 06:15:17;;;;;;;0.85;0.85;;;;;;;5.66;85.13;96774.38;4987461;28;20077;-72
2023/12/12 06:17:44;;;;;;;0.98;0.98;;;;;;;5.66;85.15;96771.72;4976456;28;20050;-70
2023/12/12 06:20:13;;;;;;;0.80;0.80;;;;;;;5.66;85.28;96774.38;4987778;28;20921;-72
2023/12/12 06:22:40;;;;;;;0.80;0.80;;;;;;;5.67;85.13;96773.38;4987703;28;20042;-71
2023/12/12 06:25:10;;;;;;;1.00;1.00;;;;;;;5.70;85.19;96775.66;4978948;28;20411;-71
2023/12/12 06:27:38;;;;;;;0.70;0.70;;;;;;;5.70;84.96;96778.31;4988745;28;20049;-71
2023/12/12 06:30:07;;;;;;;1.15;1.15;;;;;;;5.70;85.44;96780.97;4979228;28;20073;-70
2023/12/12 06:32:35;;;;;;;0.80;0.80;;;;;;;5.71;85.25;96779.97;4988000;28;20046;-70
2023/12/12 06:35:04;;;;;;;1.00;1.00;;;;;;;5.75;85.14;96773.28;4988712;28;20046;-71
2023/12/12 06:37:32;;;;;;;0.95;0.95;;;;;;;5.74;85.02;96775.09;4988178;28;20050;-70
2023/12/12 06:40:02;;;;;;;0.95;0.95;;;;;;;5.74;85.19;96775.09;4988464;28;20089;-70
2023/12/12 06:42:32;;;;;;;1.10;1.10;;;;;;;5.74;85.39;96774.28;4988462;28;20050;-71
2023/12/12 06:45:01;;;;;;;0.70;0.70;;;;;;;5.71;85.84;96782.59;4989071;28;20045;-71
2023/12/12 06:47:28;;;;;;;1.33;1.33;;;;;;;5.74;86.09;96779.56;4988312;28;20253;-70
2023/12/12 06:49:57;;;;;;;0.75;0.75;;;;;;;5.71;86.07;96786.03;4988157;28;20125;-70
2023/12/12 06:52:24;;;;;;;0.77;0.77;;;;;;;5.74;86.12;96787.50;4989227;28;20046;-70
2023/12/12 06:54:52;;;;;;;0.90;0.90;;;;;;;5.75;86.57;96783.84;4989036;28;20073;-71
2023/12/12 06:57:19;;;;;;;1.30;1.30;;;;;;;5.77;86.28;96784.50;4989135;28;20137;-71
2023/12/12 06:59:48;;;;;;;1.10;1.10;;;;;;;5.79;86.25;96785.16;4988430;28;20496;-71
2023/12/12 07:02:16;;;;;;;1.00;1.00;;;;;;;5.79;86.26;96783.31;4987110;28;20061;-73
2023/12/12 07:04:44;;;;;;;1.20;1.20;;;;;;;5.76;86.57;96780.22;4988609;28;20126;-71
2023/12/12 07:07:11;;;;;;;1.52;1.52;;;;;;;5.78;86.43;96784.31;4987623;28;20054;-71
2023/12/12 07:09:40;;;;;;;0.88;0.88;;;;;;;5.75;86.33;96783.84;4975766;28;20062;-71
2023/12/12 07:12:08;;;;;;;1.13;1.13;;;;;;;5.72;86.50;96787.69;4991282;28;20085;-73
2023/12/12 07:14:35;;;;;;;1.00;1.00;;;;;;;5.75;86.63;96783.84;4995296;28;20065;-72
2023/12/12 07:17:05;;;;;;;0.40;0.40;;;;;;;5.70;86.56;96778.31;4993061;28;20411;-75
2023/12/12 07:19:32;;;;;;;0.40;0.40;;;;;;;5.67;86.59;96778.66;4987428;28;20410;-72
2023/12/12 07:22:00;;;;;;;0.70;0.50;;;;;;;5.73;86.28;96780.56;4989398;28;20483;-72
2023/12/12 07:24:28;;;;;;;1.45;1.40;;;;;;;5.72;86.03;96776.28;4978300;28;20049;-74
2023/12/12 07:26:55;;;;;;;1.17;1.17;;;;;;;5.71;85.97;96772.81;4988503;28;20038;-72
2023/12/12 07:29:23;;;;;;;1.05;1.05;;;;;;;5.73;85.81;96770.81;4988524;28;20108;-72
2023/12/12 07:31:51;;;;;;;0.90;0.90;;;;;;;5.71;85.44;96770.16;4988263;28;20460;-72
2023/12/12 07:34:20;;;;;;;0.85;0.85;;;;;;;5.70;85.24;96770.38;4988720;28;20077;-72
2023/12/12 07:36:49;;;;;;;1.00;1.00;;;;;;;5.70;84.90;96754.50;4975123;28;20129;-72
2023/12/12 07:39:17;;;;;;;0.30;0.30;;;;;;;5.70;84.65;96759.78;4988391;28;20428;-71
2023/12/12 07:41:44;;;;;;;1.10;1.10;;;;;;;5.73;84.90;96759.38;4975873;28;20050;-72
2023/12/12 07:44:12;;;;;;;1.15;1.05;;;;;;;5.71;84.95;96761.44;4988833;28;20137;-72
2023/12/12 07:46:40;;;;;;;1.35;1.30;;;;;;;5.73;84.86;96762.84;4978798;28;20133;-72
2023/12/12 07:49:08;;;;;;;1.05;1.05;;;;;;;5.78;85.22;96764.97;4988008;28;20038;-72
2023/12/12 07:51:37;;;;;;;0.47;0.38;;;;;;;5.77;85.16;96764.16;4987149;28;20426;-72
2023/12/12 07:54:06;;;;;;;1.15;1.15;;;;;;;5.77;85.43;96755.38;4977051;28;20130;-73
2023/12/12 07:56:34;;;;;;;1.30;1.30;;;;;;;5.83;85.37;96760.75;4989184;28;20089;-72
2023/12/12 07:59:01;;;;;;;1.10;1.10;;;;;;;5.87;85.26;96763.84;4986043;28;20088;-72
2023/12/12 08:01:29;;;;;;;1.65;1.55;;;;;;;5.85;85.31;96768.50;4987249;28;20073;-72
2023/12/12 08:03:57;;;;;;;1.10;1.10;;;;;;;5.88;85.62;96770.81;4988906;28;20082;-72
2023/12/12 08:06:26;;;;;;;1.00;1.00;;;;;;;5.85;85.61;96760.56;4988684;28;20085;-72
2023/12/12 08:08:55;;;;;;;1.40;1.30;;;;;;;5.81;85.88;96775.19;4978516;28;20100;-72
2023/12/12 08:11:24;;;;;;;1.08;1.08;;;;;;;5.80;86.13;96779.66;4991205;28;20134;-71
2023/12/12 08:13:52;;;;;;;0.95;0.95;;;;;;;5.81;86.31;96778.63;4992470;28;20117;-72
2023/12/12 08:16:20;;;;;;;1.20;1.20;;;;;;;5.91;86.35;96786.34;4992394;28;20034;-72
2023/12/12 08:18:47;;;;;;;1.20;1.20;;;;;;;5.88;85.97;96789.34;4991632;28;20042;-72
2023/12/12 08:21:15;;;;;;;1.70;1.60;;;;;;;5.93;86.10;96786.13;4989960;28;20117;-72
2023/12/12 08:23:43;;;;;;;0.98;0.98;;;;;;;5.90;86.24;96795.28;4992327;28;20042;-72
2023/12/12 08:26:12;;;;;;;1.10;1.10;;;;;;;5.91;86.27;96791.66;4990978;28;20101;-72
2023/12/12 08:28:39;;;;;;;0.80;0.80;;;;;;;5.93;86.49;96797.56;4992393;28;20113;-72
2023/12/12 08:31:07;;;;;;;0.80;0.80;;;;;;;5.94;86.76;96798.38;4990817;28;20038;-72
2023/12/12 08:33:35;;;;;;;0.90;0.90;;;;;;;5.94;86.71;96796.53;4992285;28;20062;-73
2023/12/12 08:36:03;;;;;;;1.40;1.40;;;;;;;5.99;86.70;96793.34;4991807;28;20042;-72
2023/12/12 08:38:31;;;;;;;1.05;1.05;;;;;;;6.01;86.32;96786.06;4991484;28;20099;-72
2023/12/12 08:40:59;;;;;;;1.27;1.27;;;;;;;6.03;86.57;96791.97;4980771;28;20117;-72
2023/12/12 08:43:27;;;;;;;1.02;1.02;;;;;;;6.08;86.27;96793.06;4995077;28;20049;-72
2023/12/12 08:45:56;;;;;;;1.25;1.25;;;;;;;6.04;86.37;96791.78;4994505;28;20129;-71
2023/12/12 08:48:24;;;;;;;1.02;1.02;;;;;;;6.18;85.79;96793.59;4993479;28;20046;-73
2023/12/12 08:50:52;;;;;;;1.25;1.25;;;;;;;6.17;85.79;96793.75;4990218;28;20399;-72
2023/12/12 08:53:26;;;;;;;1.05;1.05;;;;;;;6.19;85.62;96797.88;4989287;28;20038;-72
2023/12/12 08:55:55;;;;;;;1.10;1.10;;;;;;;6.19;85.79;96795.22;4992202;28;20407;-73
2023/12/12 08:58:23;;;;;;;0.98;0.98;;;;;;;6.15;86.08;96787.81;4988282;28;20097;-72
2023/12/12 09:00:54;;;;;;;1.08;1.08;;;;;;;6.18;85.99;96782.16;4985828;28;20049;-72
2023/12/12 09:03:23;;;;;;;0.90;0.90;;;;;;;6.26;85.39;96784.69;4990842;28;20050;-72
2023/12/12 09:05:51;;;;;;;1.40;1.40;;;;;;;6.22;85.48;96783.44;4990995;28;20550;-72
2023/12/12 09:08:18;;;;;;;1.23;1.23;;;;;;;6.29;85.28;96776.38;4992742;28;20034;-73
2023/12/12 09:10:46;;;;;;;1.17;1.17;;;;;;;6.31;85.23;96782.31;4991364;28;20074;-71
2023/12/12 09:13:14;;;;;;;0.70;0.60;;;;;;;6.32;85.17;96761.94;4991644;28;20474;-71
2023/12/12 09:15:41;;;;;;;0.98;0.98;;;;;;;6.35;84.94;96764.19;4992423;28;20047;-72
2023/12/12 09:18:11;;;;;;;1.15;1.15;;;;;;;6.45;84.18;96762.88;4990693;28;20104;-72
2023/12/12 09:20:47;;;;;;;0.80;0.80;;;;;;;6.48;84.13;96762.50;4989002;28;20133;-72
2023/12/12 09:23:16;;;;;;;1.05;1.05;;;;;;;6.52;84.25;96758.47;4990173;28;20046;-72
2023/12/12 09:25:44;;;;;;;1.20;1.20;;;;;;;6.55;84.11;96760.72;4990976;28;20124;-72
2023/12/12 09:28:11;;;;;;;0.93;0.93;;;;;;;6.62;84.12;96758.16;4990587;28;20116;-73
2023/12/12 09:30:39;;;;;;;1.42;1.33;;;;;;;6.72;83.57;96766.59;4990416;28;20049;-75
2023/12/12 09:33:07;;;;;;;0.93;0.93;;;;;;;6.68;82.98;96767.97;4990307;28;20112;-72
2023/12/12 09:35:38;;;;;;;0.55;0.55;;;;;;;6.69;83.60;96758.19;4990304;28;20486;-71
2023/12/12 09:38:05;;;;;;;0.95;0.95;;;;;;;6.69;83.35;96753.72;4990818;28;20039;-72
2023/12/12 09:40:34;;;;;;;1.00;1.00;;;;;;;6.71;83.65;96754.34;4989900;28;20056;-73
2023/12/12 09:43:03;;;;;;;0.98;0.98;;;;;;;6.73;83.27;96743.56;4990869;28;20039;-72
2023/12/12 09:45:31;;;;;;;0.88;0.88;;;;;;;6.76;82.96;96743.16;4989031;28;20050;-72
2023/12/12 09:47:59;;;;;;;1.40;1.40;;;;;;;6.79;83.00;96743.59;4989937;28;20074;-73
2023/12/12 09:50:28;;;;;;;0.98;0.98;;;;;;;6.81;82.54;96730.97;4989371;28;20046;-73
2023/12/12 09:52:57;;;;;;;1.08;1.08;;;;;;;6.87;82.08;96735.50;4989457;28;20410;-72
2023/12/12 09:55:25;;;;;;;0.77;0.77;;;;;;;6.91;82.64;96726.16;4990226;28;20049;-72
2023/12/12 09:57:53;;;;;;;0.88;0.88;;;;;;;6.94;82.50;96714.34;4990253;28;20046;-72
2023/12/12 10:00:22;;;;;;;1.17;1.17;;;;;;;6.95;82.17;96714.16;4990111;28;20054;-72
2023/12/12 10:02:50;;;;;;;0.90;0.90;;;;;;;6.96;81.94;96713.13;4988127;28;20361;-72
2023/12/12 10:05:18;;;;;;;1.10;1.10;;;;;;;6.96;81.97;96704.34;4989884;28;20436;-72
2023/12/12 10:07:47;;;;;;;0.98;0.98;;;;;;;7.02;81.98;96697.44;4990918;28;20038;-72
2023/12/12 10:10:28;;;;;;;1.10;1.10;;;;;;;7.04;81.87;96698.09;4992127;28;20100;-72
2023/12/12 10:12:56;;;;;;;1.15;1.15;;;;;;;7.06;81.50;96702.16;4991656;28;20101;-72
2023/12/12 10:15:27;;;;;;;0.98;0.98;;;;;;;7.03;81.52;96691.13;4990052;28;20121;-72
2023/12/12 10:17:56;;;;;;;1.05;1.05;;;;;;;7.02;81.89;96698.28;4989615;28;20038;-72
2023/12/12 10:20:28;;;;;;;1.17;1.17;;;;;;;7.08;81.62;96701.97;4988781;28;20054;-73
2023/12/12 10:22:58;;;;;;;0.90;0.90;;;;;;;7.04;80.87;96696.25;4987338;28;20058;-72
2023/12/12 10:25:28;;;;;;;1.20;1.20;;;;;;;7.05;81.43;96697.88;4990603;28;20504;-72
2023/12/12 10:27:57;;;;;;;0.55;0.55;;;;;;;7.04;81.27;96706.03;4989457;28;20388;-73
2023/12/12 10:30:26;;;;;;;1.15;1.15;;;;;;;7.03;81.70;96699.09;4989830;28;20057;-72
2023/12/12 10:32:54;;;;;;;1.23;1.23;;;;;;;7.11;81.43;96698.94;4986495;28;20057;-71
2023/12/12 10:35:23;;;;;;;1.13;1.13;;;;;;;7.10;82.14;96697.28;4989429;28;20117;-73
2023/12/12 10:37:51;;;;;;;0.95;0.95;;;;;;;7.09;81.79;96685.84;4988994;28;20038;-73
2023/12/12 10:40:21;;;;;;;1.05;1.05;;;;;;;7.08;81.80;96704.63;4987771;28;20064;-73
2023/12/12 10:42:51;;;;;;;1.63;1.52;;;;;;;7.07;81.91;96690.53;4988157;28;20530;-72
2023/12/12 10:45:20;;;;;;;1.48;1.48;;;;;;;7.06;81.70;96694.19;4988219;28;20050;-72
2023/12/12 10:47:50;;;;;;;1.02;1.02;;;;;;;7.10;81.83;96684.03;4978787;28;20286;-72
2023/12/12 10:50:19;;;;;;;0.80;0.80;;;;;;;7.10;82.39;96684.84;4989139;28;20045;-72
2023/12/12 10:52:49;;;;;;;1.17;1.17;;;;;;;7.09;81.78;96680.53;4979743;28;20046;-73
2023/12/12 10:55:18;;;;;;;1.02;1.02;;;;;;;7.18;81.60;96681.22;4989444;28;20451;-72
2023/12/12 10:57:47;;;;;;;0.95;0.95;;;;;;;7.13;81.26;96676.50;4988925;28;20054;-72
2023/12/12 11:00:20;;;;;;;0.95;0.95;;;;;;;7.07;81.45;96671.13;4988004;28;20404;-73
2023/12/12 11:02:49;;;;;;;1.10;1.10;;;;;;;7.06;81.47;96677.50;4988775;28;20061;-73
2023/12/12 11:05:18;;;;;;;0.90;0.90;;;;;;;7.04;81.23;96666.25;4989063;28;20068;-73
2023/12/12 11:07:48;;;;;;;0.40;0.40;;;;;;;7.07;81.51;96665.84;4988969;28;20469;-73
2023/12/12 11:10:21;;;;;;;0.80;0.80;;;;;;;7.08;81.12;96656.88;4988288;28;20038;-73
2023/12/12 11:12:51;;;;;;;0.95;0.95;;;;;;;7.08;81.29;96647.06;4989266;28;20046;-73
2023/12/12 11:15:20;;;;;;;1.85;1.75;;;;;;;7.09;81.61;96651.38;4987927;28;20057;-73
2023/12/12 11:17:50;;;;;;;1.40;1.40;;;;;;;7.09;81.92;96642.59;4989441;28;20057;-73
2023/12/12 11:20:18;;;;;;;0.93;0.93;;;;;;;7.11;81.81;96637.91;4987715;28;20519;-73
2023/12/12 11:22:49;;;;;;;1.10;1.10;;;;;;;7.09;82.31;96651.38;4988698;28;20043;-73
2023/12/12 11:25:19;;;;;;;1.17;1.17;;;;;;;7.09;82.11;96642.59;4988652;28;20045;-72
2023/12/12 11:27:49;;;;;;;1.13;1.13;;;;;;;7.09;82.45;96642.59;4988265;28;20038;-72
2023/12/12 11:30:20;;;;;;;1.00;1.00;;;;;;;7.11;81.62;96629.94;4976398;28;20149;-72
2023/12/12 11:32:48;;;;;;;1.17;1.17;;;;;;;7.12;81.49;96637.72;4989045;28;20137;-72
2023/12/12 11:35:28;;;;;;;0.93;0.93;;;;;;;7.17;81.42;96637.94;4989292;28;20450;-72
2023/12/12 11:37:58;;;;;;;0.60;0.60;;;;;;;7.28;81.33;96628.59;4991505;28;20419;-73
2023/12/12 11:40:27;;;;;;;1.52;1.42;;;;;;;7.28;81.26;96628.59;4988347;28;20034;-73
2023/12/12 11:42:57;;;;;;;1.30;1.20;;;;;;;7.34;81.41;96619.84;4990882;28;20129;-72
2023/12/12 11:45:33;;;;;;;1.42;1.42;;;;;;;7.37;81.13;96617.59;5004259;28;20046;-72
2023/12/12 11:48:01;;;;;;;0.32;0.30;;;;;;;7.40;80.31;96600.47;5003658;28;20433;-72